createdAt,value
2018-04-22T00:00:59.463Z,1013.95
2018-04-22T00:01:59.372Z,1013.96
2018-04-22T00:02:59.268Z,1013.98
2018-04-22T00:03:59.215Z,1013.93
2018-04-22T00:04:59.073Z,1013.89
2018-04-22T00:05:58.970Z,1013.93
2018-04-22T00:06:58.881Z,1013.88
2018-04-22T00:07:58.785Z,1013.87
2018-04-22T00:08:58.685Z,1013.87
2018-04-22T00:09:58.582Z,1013.86
2018-04-22T00:10:58.478Z,1013.85
2018-04-22T00:11:58.389Z,1013.85
2018-04-22T00:12:58.285Z,1013.89
2018-04-22T00:13:58.193Z,1013.83
2018-04-22T00:14:58.097Z,1013.82
2018-04-22T00:15:57.990Z,1013.83
2018-04-22T00:16:57.897Z,1013.85
2018-04-22T00:17:57.794Z,1013.82
2018-04-22T00:18:57.702Z,1013.80
2018-04-22T00:19:57.598Z,1013.82
2018-04-22T00:20:57.497Z,1013.80
2018-04-22T00:21:57.405Z,1013.78
2018-04-22T00:22:57.302Z,1013.79
2018-04-22T00:23:57.211Z,1013.79
2018-04-22T00:24:57.108Z,1013.78
2018-04-22T00:25:57.017Z,1013.80
2018-04-22T00:26:56.915Z,1013.81
2018-04-22T00:27:56.823Z,1013.74
2018-04-22T00:28:56.719Z,1013.75
2018-04-22T00:29:56.616Z,1013.76
2018-04-22T00:30:56.525Z,1013.76
2018-04-22T00:31:56.426Z,1013.74
2018-04-22T00:32:56.330Z,1013.72
2018-04-22T00:33:56.228Z,1013.74
2018-04-22T00:34:56.124Z,1013.73
2018-04-22T00:35:56.035Z,1013.69
2018-04-22T00:36:55.931Z,1013.70
2018-04-22T00:37:55.839Z,1013.67
2018-04-22T00:38:55.736Z,1013.69
2018-04-22T00:39:55.633Z,1013.69
2018-04-22T00:40:55.542Z,1013.64
2018-04-22T00:41:55.439Z,1013.69
2018-04-22T00:42:55.348Z,1013.65
2018-04-22T00:43:55.244Z,1013.68
2018-04-22T00:44:55.141Z,1013.67
2018-04-22T00:45:55.052Z,1013.65
2018-04-22T00:46:55.250Z,1013.66
2018-04-22T00:47:54.858Z,1013.63
2018-04-22T00:48:54.766Z,1013.64
2018-04-22T00:49:54.653Z,1013.65
2018-04-22T00:50:54.561Z,1013.63
2018-04-22T00:51:54.458Z,1013.66
2018-04-22T00:52:54.365Z,1013.67
2018-04-22T00:53:54.263Z,1013.66
2018-04-22T00:54:54.160Z,1013.64
2018-04-22T00:55:54.069Z,1013.64
2018-04-22T00:56:53.967Z,1013.66
2018-04-22T00:57:53.874Z,1013.68
2018-04-22T00:58:53.772Z,1013.69
2018-04-22T00:59:53.668Z,1013.69
2018-04-22T01:00:53.578Z,1013.66
2018-04-22T01:01:53.482Z,1013.73
2018-04-22T01:02:53.382Z,1013.70
2018-04-22T01:03:53.280Z,1013.72
2018-04-22T01:04:53.177Z,1013.70
2018-04-22T01:05:53.086Z,1013.73
2018-04-22T01:06:52.983Z,1013.72
2018-04-22T01:07:52.890Z,1013.71
2018-04-22T01:08:52.790Z,1013.72
2018-04-22T01:09:52.684Z,1013.74
2018-04-22T01:10:52.595Z,1013.74
2018-04-22T01:11:52.742Z,1013.70
2018-04-22T01:12:52.388Z,1013.72
2018-04-22T01:13:52.297Z,1013.67
2018-04-22T01:14:52.193Z,1013.66
2018-04-22T01:15:52.104Z,1013.67
2018-04-22T01:16:52.000Z,1013.65
2018-04-22T01:17:51.902Z,1013.64
2018-04-22T01:18:51.806Z,1013.68
2018-04-22T01:19:51.714Z,1013.69
2018-04-22T01:20:51.600Z,1013.67
2018-04-22T01:21:51.758Z,1013.67
2018-04-22T01:22:51.406Z,1013.65
2018-04-22T01:23:51.315Z,1013.62
2018-04-22T01:24:51.212Z,1013.63
2018-04-22T01:25:51.109Z,1013.59
2018-04-22T01:26:51.020Z,1013.61
2018-04-22T01:27:50.917Z,1013.60
2018-04-22T01:28:50.813Z,1013.63
2018-04-22T01:29:50.725Z,1013.59
2018-04-22T01:30:50.619Z,1013.61
2018-04-22T01:31:50.766Z,1013.64
2018-04-22T01:32:50.426Z,1013.64
2018-04-22T01:33:50.327Z,1013.68
2018-04-22T01:34:50.232Z,1013.63
2018-04-22T01:35:50.128Z,1013.67
2018-04-22T01:36:50.025Z,1013.63
2018-04-22T01:37:49.939Z,1013.65
2018-04-22T01:38:49.832Z,1013.63
2018-04-22T01:39:49.729Z,1013.61
2018-04-22T01:40:49.639Z,1013.56
2018-04-22T01:41:49.546Z,1013.59
2018-04-22T01:42:49.432Z,1013.59
2018-04-22T01:43:49.340Z,1013.59
2018-04-22T01:44:49.238Z,1013.54
2018-04-22T01:45:49.136Z,1013.56
2018-04-22T01:46:49.043Z,1013.54
2018-04-22T01:47:48.939Z,1013.54
2018-04-22T01:48:48.836Z,1013.53
2018-04-22T01:49:48.749Z,1013.55
2018-04-22T01:50:48.643Z,1013.53
2018-04-22T01:51:48.852Z,1013.54
2018-04-22T01:52:48.447Z,1013.54
2018-04-22T01:53:48.345Z,1013.57
2018-04-22T01:54:48.243Z,1013.55
2018-04-22T01:55:48.152Z,1013.54
2018-04-22T01:56:48.047Z,1013.51
2018-04-22T01:57:47.944Z,1013.53
2018-04-22T01:58:47.852Z,1013.53
2018-04-22T01:59:47.749Z,1013.49
2018-04-22T02:00:47.646Z,1013.51
2018-04-22T02:01:47.856Z,1013.48
2018-04-22T02:02:47.459Z,1013.48
2018-04-22T02:03:47.362Z,1013.47
2018-04-22T02:04:47.256Z,1013.44
2018-04-22T02:05:47.153Z,1013.48
2018-04-22T02:06:47.050Z,1013.44
2018-04-22T02:07:46.959Z,1013.47
2018-04-22T02:08:46.856Z,1013.42
2018-04-22T02:09:46.752Z,1013.41
2018-04-22T02:10:46.660Z,1013.41
2018-04-22T02:11:46.559Z,1013.41
2018-04-22T02:12:46.455Z,1013.40
2018-04-22T02:13:46.365Z,1013.40
2018-04-22T02:14:46.264Z,1013.38
2018-04-22T02:15:46.161Z,1013.35
2018-04-22T02:16:46.066Z,1013.37
2018-04-22T02:17:45.975Z,1013.36
2018-04-22T02:18:45.861Z,1013.37
2018-04-22T02:19:45.769Z,1013.39
2018-04-22T02:20:45.666Z,1013.34
2018-04-22T02:21:45.813Z,1013.36
2018-04-22T02:22:45.470Z,1013.27
2018-04-22T02:23:45.367Z,1013.28
2018-04-22T02:24:45.264Z,1013.36
2018-04-22T02:25:45.174Z,1013.32
2018-04-22T02:26:45.071Z,1013.33
2018-04-22T02:27:45.004Z,1013.32
2018-04-22T02:28:44.876Z,1013.28
2018-04-22T02:29:44.772Z,1013.29
2018-04-22T02:30:44.668Z,1013.24
2018-04-22T02:31:44.583Z,1013.27
2018-04-22T02:32:44.476Z,1013.25
2018-04-22T02:33:44.372Z,1013.24
2018-04-22T02:34:44.274Z,1013.24
2018-04-22T02:35:44.178Z,1013.25
2018-04-22T02:36:44.089Z,1013.22
2018-04-22T02:37:43.969Z,1013.22
2018-04-22T02:38:43.880Z,1013.21
2018-04-22T02:39:43.777Z,1013.20
2018-04-22T02:40:43.684Z,1013.16
2018-04-22T02:41:43.581Z,1013.17
2018-04-22T02:42:43.477Z,1013.12
2018-04-22T02:43:43.374Z,1013.14
2018-04-22T02:44:43.286Z,1013.17
2018-04-22T02:45:43.181Z,1013.12
2018-04-22T02:46:43.077Z,1013.12
2018-04-22T02:47:42.986Z,1013.12
2018-04-22T02:48:42.882Z,1013.09
2018-04-22T02:49:42.779Z,1013.12
2018-04-22T02:50:42.676Z,1013.10
2018-04-22T02:51:42.586Z,1013.07
2018-04-22T02:52:42.486Z,1013.08
2018-04-22T02:53:42.379Z,1013.04
2018-04-22T02:54:42.286Z,1013.05
2018-04-22T02:55:42.183Z,1013.07
2018-04-22T02:56:42.082Z,1013.05
2018-04-22T02:57:41.990Z,1013.03
2018-04-22T02:58:41.886Z,1012.99
2018-04-22T02:59:41.783Z,1013.00
2018-04-22T03:00:41.679Z,1013.01
2018-04-22T03:01:41.838Z,1012.98
2018-04-22T03:02:41.484Z,1012.95
2018-04-22T03:03:41.381Z,1012.99
2018-04-22T03:04:41.292Z,1012.99
2018-04-22T03:05:41.190Z,1012.96
2018-04-22T03:06:41.084Z,1012.96
2018-04-22T03:07:40.994Z,1012.94
2018-04-22T03:08:40.889Z,1012.93
2018-04-22T03:09:40.786Z,1012.93
2018-04-22T03:10:40.692Z,1012.95
2018-04-22T03:11:40.596Z,1012.92
2018-04-22T03:12:40.491Z,1012.93
2018-04-22T03:13:40.386Z,1012.94
2018-04-22T03:14:40.298Z,1012.93
2018-04-22T03:15:40.190Z,1012.93
2018-04-22T03:16:40.088Z,1012.94
2018-04-22T03:17:39.997Z,1012.96
2018-04-22T03:18:39.894Z,1012.97
2018-04-22T03:19:39.793Z,1012.93
2018-04-22T03:20:39.688Z,1012.94
2018-04-22T03:21:39.895Z,1012.98
2018-04-22T03:22:39.493Z,1012.95
2018-04-22T03:23:39.401Z,1012.94
2018-04-22T03:24:39.298Z,1012.90
2018-04-22T03:25:39.196Z,1012.93
2018-04-22T03:26:39.092Z,1012.90
2018-04-22T03:27:38.992Z,1012.90
2018-04-22T03:28:38.897Z,1012.90
2018-04-22T03:29:38.794Z,1012.89
2018-04-22T03:30:38.690Z,1012.88
2018-04-22T03:31:38.601Z,1012.89
2018-04-22T03:32:38.497Z,1012.87
2018-04-22T03:33:38.395Z,1012.84
2018-04-22T03:34:38.292Z,1012.86
2018-04-22T03:35:38.204Z,1012.83
2018-04-22T03:36:38.096Z,1012.83
2018-04-22T03:37:37.993Z,1012.86
2018-04-22T03:38:37.903Z,1012.83
2018-04-22T03:39:37.800Z,1012.82
2018-04-22T03:40:37.697Z,1012.86
2018-04-22T03:41:37.605Z,1012.82
2018-04-22T03:42:37.506Z,1012.83
2018-04-22T03:43:37.402Z,1012.86
2018-04-22T03:44:37.295Z,1012.83
2018-04-22T03:45:37.205Z,1012.84
2018-04-22T03:46:37.102Z,1012.82
2018-04-22T03:47:37.003Z,1012.82
2018-04-22T03:48:36.900Z,1012.85
2018-04-22T03:49:36.805Z,1012.84
2018-04-22T03:50:36.704Z,1012.83
2018-04-22T03:51:36.903Z,1012.82
2018-04-22T03:52:36.507Z,1012.80
2018-04-22T03:53:36.404Z,1012.80
2018-04-22T03:54:36.301Z,1012.80
2018-04-22T03:55:36.198Z,1012.82
2018-04-22T03:56:36.106Z,1012.81
2018-04-22T03:57:36.003Z,1012.80
2018-04-22T03:58:35.904Z,1012.78
2018-04-22T03:59:35.798Z,1012.76
2018-04-22T04:00:35.707Z,1012.76
2018-04-22T04:01:35.852Z,1012.74
2018-04-22T04:02:35.500Z,1012.71
2018-04-22T04:03:35.399Z,1012.71
2018-04-22T04:04:35.305Z,1012.74
2018-04-22T04:05:35.202Z,1012.72
2018-04-22T04:06:35.098Z,1012.73
2018-04-22T04:07:35.009Z,1012.73
2018-04-22T04:08:34.905Z,1012.77
2018-04-22T04:09:34.809Z,1012.79
2018-04-22T04:10:34.710Z,1012.78
2018-04-22T04:11:34.607Z,1012.78
2018-04-22T04:12:34.503Z,1012.77
2018-04-22T04:13:34.400Z,1012.78
2018-04-22T04:14:34.360Z,1012.84
2018-04-22T04:15:34.206Z,1012.77
2018-04-22T04:16:34.106Z,1012.82
2018-04-22T04:17:34.013Z,1012.79
2018-04-22T04:18:33.908Z,1012.80
2018-04-22T04:19:33.805Z,1012.83
2018-04-22T04:20:33.702Z,1012.80
2018-04-22T04:21:33.610Z,1012.79
2018-04-22T04:22:33.507Z,1012.80
2018-04-22T04:23:33.404Z,1012.81
2018-04-22T04:24:33.314Z,1012.78
2018-04-22T04:25:33.210Z,1012.86
2018-04-22T04:26:33.107Z,1012.86
2018-04-22T04:27:33.017Z,1012.90
2018-04-22T04:28:32.912Z,1012.91
2018-04-22T04:29:32.810Z,1012.93
2018-04-22T04:30:32.718Z,1012.89
2018-04-22T04:31:32.615Z,1012.90
2018-04-22T04:32:32.512Z,1012.89
2018-04-22T04:33:32.422Z,1012.91
2018-04-22T04:34:32.319Z,1012.95
2018-04-22T04:35:32.227Z,1012.89
2018-04-22T04:36:32.123Z,1012.91
2018-04-22T04:37:32.024Z,1012.88
2018-04-22T04:38:31.930Z,1012.88
2018-04-22T04:39:31.834Z,1012.90
2018-04-22T04:40:31.735Z,1012.88
2018-04-22T04:41:31.635Z,1012.86
2018-04-22T04:42:31.528Z,1012.86
2018-04-22T04:43:31.488Z,1012.86
2018-04-22T04:44:31.341Z,1012.88
2018-04-22T04:45:31.243Z,1012.89
2018-04-22T04:46:31.140Z,1012.92
2018-04-22T04:47:31.050Z,1012.92
2018-04-22T04:48:30.947Z,1012.87
2018-04-22T04:49:30.855Z,1012.96
2018-04-22T04:50:30.752Z,1012.86
2018-04-22T04:51:30.962Z,1012.89
2018-04-22T04:52:30.559Z,1012.90
2018-04-22T04:53:30.482Z,1012.91
2018-04-22T04:54:30.363Z,1012.88
2018-04-22T04:55:30.275Z,1012.93
2018-04-22T04:56:30.170Z,1012.92
2018-04-22T04:57:30.079Z,1012.98
2018-04-22T04:58:29.975Z,1012.98
2018-04-22T04:59:29.885Z,1012.98
2018-04-22T05:00:29.782Z,1012.94
2018-04-22T05:01:29.691Z,1012.98
2018-04-22T05:02:29.601Z,1012.95
2018-04-22T05:03:29.497Z,1012.95
2018-04-22T05:04:29.407Z,1012.96
2018-04-22T05:05:29.301Z,1012.93
2018-04-22T05:06:29.212Z,1012.91
2018-04-22T05:07:29.119Z,1012.90
2018-04-22T05:08:29.018Z,1012.92
2018-04-22T05:09:28.932Z,1012.83
2018-04-22T05:10:28.824Z,1012.83
2018-04-22T05:11:28.733Z,1012.82
2018-04-22T05:12:28.641Z,1012.84
2018-04-22T05:13:28.540Z,1012.84
2018-04-22T05:14:28.448Z,1012.88
2018-04-22T05:15:28.363Z,1012.88
2018-04-22T05:16:28.254Z,1012.87
2018-04-22T05:17:28.162Z,1012.87
2018-04-22T05:18:28.076Z,1012.90
2018-04-22T05:19:27.968Z,1012.86
2018-04-22T05:20:27.877Z,1012.89
2018-04-22T05:21:27.775Z,1012.87
2018-04-22T05:22:27.689Z,1012.86
2018-04-22T05:23:27.592Z,1012.86
2018-04-22T05:24:27.491Z,1012.83
2018-04-22T05:25:27.399Z,1012.89
2018-04-22T05:26:27.307Z,1012.89
2018-04-22T05:27:27.217Z,1012.88
2018-04-22T05:28:27.115Z,1012.82
2018-04-22T05:29:27.022Z,1012.85
2018-04-22T05:30:26.932Z,1012.83
2018-04-22T05:31:26.830Z,1012.83
2018-04-22T05:32:26.738Z,1012.83
2018-04-22T05:33:26.650Z,1012.85
2018-04-22T05:34:26.549Z,1012.81
2018-04-22T05:35:26.453Z,1012.86
2018-04-22T05:36:26.370Z,1012.83
2018-04-22T05:37:26.271Z,1012.80
2018-04-22T05:38:26.168Z,1012.81
2018-04-22T05:39:26.081Z,1012.84
2018-04-22T05:40:25.988Z,1012.83
2018-04-22T05:41:26.146Z,1012.85
2018-04-22T05:42:25.792Z,1012.85
2018-04-22T05:43:25.702Z,1012.89
2018-04-22T05:44:25.612Z,1012.88
2018-04-22T05:45:25.519Z,1012.85
2018-04-22T05:46:25.431Z,1012.89
2018-04-22T05:47:25.326Z,1012.89
2018-04-22T05:48:25.235Z,1012.86
2018-04-22T05:49:25.147Z,1012.89
2018-04-22T05:50:25.053Z,1012.93
2018-04-22T05:51:24.963Z,1012.91
2018-04-22T05:52:24.871Z,1012.87
2018-04-22T05:53:24.782Z,1012.88
2018-04-22T05:54:24.680Z,1012.87
2018-04-22T05:55:24.588Z,1012.87
2018-04-22T05:56:24.496Z,1012.86
2018-04-22T05:57:24.405Z,1012.87
2018-04-22T05:58:24.316Z,1012.85
2018-04-22T05:59:24.236Z,1012.86
2018-04-22T06:00:24.133Z,1012.91
2018-04-22T06:01:24.062Z,1012.89
2018-04-22T06:02:23.940Z,1012.86
2018-04-22T06:03:23.848Z,1012.88
2018-04-22T06:04:23.756Z,1012.84
2018-04-22T06:05:23.667Z,1012.89
2018-04-22T06:06:23.875Z,1012.88
2018-04-22T06:07:23.486Z,1012.88
2018-04-22T06:08:23.393Z,1012.86
2018-04-22T06:09:23.304Z,1012.86
2018-04-22T06:10:23.212Z,1012.83
2018-04-22T06:11:23.121Z,1012.83
2018-04-22T06:12:23.030Z,1012.83
2018-04-22T06:13:22.941Z,1012.85
2018-04-22T06:14:22.855Z,1012.83
2018-04-22T06:15:22.759Z,1012.85
2018-04-22T06:16:22.668Z,1012.84
2018-04-22T06:17:22.581Z,1012.84
2018-04-22T06:18:22.489Z,1012.82
2018-04-22T06:19:22.401Z,1012.82
2018-04-22T06:20:22.305Z,1012.83
2018-04-22T06:21:22.227Z,1012.79
2018-04-22T06:22:22.139Z,1012.74
2018-04-22T06:23:22.044Z,1012.74
2018-04-22T06:24:21.954Z,1012.74
2018-04-22T06:25:21.862Z,1012.72
2018-04-22T06:26:21.772Z,1012.69
2018-04-22T06:27:21.681Z,1012.73
2018-04-22T06:28:21.626Z,1012.72
2018-04-22T06:29:21.499Z,1012.74
2018-04-22T06:30:21.421Z,1012.70
2018-04-22T06:31:21.320Z,1012.73
2018-04-22T06:32:21.239Z,1012.70
2018-04-22T06:33:21.149Z,1012.70
2018-04-22T06:34:21.058Z,1012.71
2018-04-22T06:35:20.966Z,1012.70
2018-04-22T06:36:20.876Z,1012.70
2018-04-22T06:37:20.786Z,1012.76
2018-04-22T06:38:20.697Z,1012.72
2018-04-22T06:39:20.616Z,1012.75
2018-04-22T06:40:20.534Z,1012.71
2018-04-22T06:41:20.434Z,1012.74
2018-04-22T06:42:20.344Z,1012.68
2018-04-22T06:43:20.254Z,1012.66
2018-04-22T06:44:20.164Z,1012.64
2018-04-22T06:45:20.085Z,1012.62
2018-04-22T06:46:19.992Z,1012.63
2018-04-22T06:47:19.903Z,1012.61
2018-04-22T06:48:19.815Z,1012.63
2018-04-22T06:49:19.720Z,1012.63
2018-04-22T06:50:19.643Z,1012.58
2018-04-22T06:51:19.801Z,1012.63
2018-04-22T06:52:19.461Z,1012.57
2018-04-22T06:53:19.426Z,1012.62
2018-04-22T06:54:19.291Z,1012.60
2018-04-22T06:55:19.201Z,1012.61
2018-04-22T06:56:19.111Z,1012.56
2018-04-22T06:57:19.019Z,1012.54
2018-04-22T06:58:18.943Z,1012.61
2018-04-22T06:59:18.850Z,1012.58
2018-04-22T07:00:18.759Z,1012.57
2018-04-22T07:01:18.981Z,1012.56
2018-04-22T07:02:18.590Z,1012.55
2018-04-22T07:03:18.514Z,1012.59
2018-04-22T07:04:18.408Z,1012.54
2018-04-22T07:05:18.330Z,1012.54
2018-04-22T07:06:18.241Z,1012.54
2018-04-22T07:07:18.150Z,1012.56
2018-04-22T07:08:18.069Z,1012.56
2018-04-22T07:09:17.982Z,1012.54
2018-04-22T07:10:17.889Z,1012.58
2018-04-22T07:11:17.810Z,1012.59
2018-04-22T07:12:17.720Z,1012.55
2018-04-22T07:13:17.641Z,1012.55
2018-04-22T07:14:17.550Z,1012.54
2018-04-22T07:15:17.460Z,1012.53
2018-04-22T07:16:17.382Z,1012.52
2018-04-22T07:17:17.290Z,1012.55
2018-04-22T07:18:17.200Z,1012.49
2018-04-22T07:19:17.121Z,1012.45
2018-04-22T07:20:17.033Z,1012.40
2018-04-22T07:21:17.190Z,1012.39
2018-04-22T07:22:16.861Z,1012.37
2018-04-22T07:23:16.770Z,1012.40
2018-04-22T07:24:16.712Z,1012.37
2018-04-22T07:25:16.601Z,1012.34
2018-04-22T07:26:16.510Z,1012.41
2018-04-22T07:27:16.420Z,1012.39
2018-04-22T07:28:16.341Z,1012.37
2018-04-22T07:29:16.271Z,1012.38
2018-04-22T07:30:16.159Z,1012.37
2018-04-22T07:31:16.069Z,1012.38
2018-04-22T07:32:16.015Z,1012.37
2018-04-22T07:33:15.900Z,1012.36
2018-04-22T07:34:15.808Z,1012.31
2018-04-22T07:35:15.746Z,1012.30
2018-04-22T07:36:15.631Z,1012.33
2018-04-22T07:37:15.551Z,1012.27
2018-04-22T07:38:15.459Z,1012.28
2018-04-22T07:39:15.367Z,1012.22
2018-04-22T07:40:15.277Z,1012.20
2018-04-22T07:41:15.185Z,1012.23
2018-04-22T07:42:15.099Z,1012.20
2018-04-22T07:43:15.003Z,1012.24
2018-04-22T07:44:14.913Z,1012.26
2018-04-22T07:45:14.823Z,1012.19
2018-04-22T07:46:14.743Z,1012.25
2018-04-22T07:47:14.655Z,1012.26
2018-04-22T07:48:14.563Z,1012.28
2018-04-22T07:49:14.471Z,1012.29
2018-04-22T07:50:14.386Z,1012.29
2018-04-22T07:51:14.290Z,1012.30
2018-04-22T07:52:14.198Z,1012.29
2018-04-22T07:53:14.108Z,1012.34
2018-04-22T07:54:14.017Z,1012.30
2018-04-22T07:55:13.929Z,1012.29
2018-04-22T07:56:13.835Z,1012.34
2018-04-22T07:57:13.745Z,1012.34
2018-04-22T07:58:13.653Z,1012.34
2018-04-22T07:59:13.563Z,1012.33
2018-04-22T08:00:13.472Z,1012.36
2018-04-22T08:01:13.369Z,1012.36
2018-04-22T08:02:13.280Z,1012.34
2018-04-22T08:03:13.187Z,1012.37
2018-04-22T08:04:13.096Z,1012.37
2018-04-22T08:05:13.006Z,1012.34
2018-04-22T08:06:12.914Z,1012.35
2018-04-22T08:07:12.823Z,1012.36
2018-04-22T08:08:12.736Z,1012.32
2018-04-22T08:09:12.644Z,1012.32
2018-04-22T08:10:12.551Z,1012.31
2018-04-22T08:11:12.461Z,1012.33
2018-04-22T08:12:12.370Z,1012.27
2018-04-22T08:13:12.279Z,1012.30
2018-04-22T08:14:12.179Z,1012.28
2018-04-22T08:15:12.090Z,1012.27
2018-04-22T08:16:11.999Z,1012.25
2018-04-22T08:17:11.907Z,1012.27
2018-04-22T08:18:11.813Z,1012.25
2018-04-22T08:19:11.722Z,1012.25
2018-04-22T08:20:11.632Z,1012.22
2018-04-22T08:21:11.844Z,1012.21
2018-04-22T08:22:11.449Z,1012.23
2018-04-22T08:23:11.348Z,1012.17
2018-04-22T08:24:11.256Z,1012.18
2018-04-22T08:25:11.164Z,1012.16
2018-04-22T08:26:11.074Z,1012.19
2018-04-22T08:27:10.982Z,1012.20
2018-04-22T08:28:10.894Z,1012.18
2018-04-22T08:29:10.817Z,1012.18
2018-04-22T08:30:10.711Z,1012.20
2018-04-22T08:31:10.620Z,1012.21
2018-04-22T08:32:10.516Z,1012.18
2018-04-22T08:33:10.426Z,1012.13
2018-04-22T08:34:10.334Z,1012.16
2018-04-22T08:35:10.248Z,1012.16
2018-04-22T08:36:10.154Z,1012.12
2018-04-22T08:37:10.063Z,1012.10
2018-04-22T08:38:09.971Z,1012.14
2018-04-22T08:39:09.881Z,1012.12
2018-04-22T08:40:09.779Z,1012.11
2018-04-22T08:41:09.686Z,1012.12
2018-04-22T08:42:09.607Z,1012.10
2018-04-22T08:43:09.505Z,1012.12
2018-04-22T08:44:09.418Z,1012.10
2018-04-22T08:45:09.323Z,1012.05
2018-04-22T08:46:09.233Z,1012.05
2018-04-22T08:47:09.145Z,1012.05
2018-04-22T08:48:09.052Z,1012.02
2018-04-22T08:49:08.948Z,1012.07
2018-04-22T08:50:08.856Z,1012.08
2018-04-22T08:51:08.766Z,1012.07
2018-04-22T08:52:08.674Z,1012.04
2018-04-22T08:53:08.586Z,1012.04
2018-04-22T08:54:08.497Z,1012.04
2018-04-22T08:55:08.403Z,1012.02
2018-04-22T08:56:08.313Z,1012.03
2018-04-22T08:57:08.210Z,1012.07
2018-04-22T08:58:08.120Z,1012.14
2018-04-22T08:59:08.028Z,1012.15
2018-04-22T09:00:07.938Z,1012.23
2018-04-22T09:01:07.845Z,1012.24
2018-04-22T09:02:07.779Z,1012.25
2018-04-22T09:03:07.664Z,1012.23
2018-04-22T09:04:07.573Z,1012.26
2018-04-22T09:05:07.482Z,1012.22
2018-04-22T09:06:07.379Z,1012.17
2018-04-22T09:07:07.288Z,1012.19
2018-04-22T09:08:07.196Z,1012.21
2018-04-22T09:09:07.107Z,1012.17
2018-04-22T09:10:07.015Z,1012.19
2018-04-22T09:11:06.927Z,1012.27
2018-04-22T09:12:06.833Z,1012.16
2018-04-22T09:13:06.750Z,1012.11
2018-04-22T09:14:06.651Z,1012.03
2018-04-22T09:15:06.571Z,1011.90
2018-04-22T09:16:06.470Z,1011.82
2018-04-22T09:17:06.382Z,1011.78
2018-04-22T09:18:06.288Z,1011.75
2018-04-22T09:19:06.198Z,1011.75
2018-04-22T09:20:06.107Z,1011.69
2018-04-22T09:21:06.016Z,1011.71
2018-04-22T09:22:05.926Z,1011.63
2018-04-22T09:23:05.835Z,1011.63
2018-04-22T09:24:05.744Z,1011.62
2018-04-22T09:25:05.653Z,1011.62
2018-04-22T09:26:05.575Z,1011.62
2018-04-22T09:27:05.496Z,1011.73
2018-04-22T09:28:05.393Z,1011.87
2018-04-22T09:29:05.301Z,1011.92
2018-04-22T09:30:05.215Z,1011.85
2018-04-22T09:31:05.122Z,1011.88
2018-04-22T09:32:05.030Z,1011.81
2018-04-22T09:33:04.987Z,1011.83
2018-04-22T09:34:04.852Z,1011.85
2018-04-22T09:35:04.771Z,1011.84
2018-04-22T09:36:04.691Z,1011.87
2018-04-22T09:37:04.594Z,1011.84
2018-04-22T09:38:04.497Z,1011.81
2018-04-22T09:39:04.418Z,1011.81
2018-04-22T09:40:04.331Z,1011.66
2018-04-22T09:41:04.236Z,1011.75
2018-04-22T09:42:04.158Z,1011.80
2018-04-22T09:43:04.123Z,1011.79
2018-04-22T09:44:03.978Z,1011.77
2018-04-22T09:45:03.898Z,1011.81
2018-04-22T09:46:03.808Z,1011.67
2018-04-22T09:47:03.730Z,1011.70
2018-04-22T09:48:03.638Z,1011.66
2018-04-22T09:49:03.560Z,1011.65
2018-04-22T09:50:03.483Z,1011.60
2018-04-22T09:51:03.392Z,1011.62
2018-04-22T09:52:03.314Z,1011.57
2018-04-22T09:53:03.223Z,1011.51
2018-04-22T09:54:03.143Z,1011.43
2018-04-22T09:55:03.065Z,1011.49
2018-04-22T09:56:02.987Z,1011.47
2018-04-22T09:57:02.897Z,1011.50
2018-04-22T09:58:02.818Z,1011.51
2018-04-22T09:59:02.740Z,1011.52
2018-04-22T10:00:02.663Z,1011.51
2018-04-22T10:01:02.571Z,1011.46
2018-04-22T10:02:02.493Z,1011.47
2018-04-22T10:03:02.416Z,1011.44
2018-04-22T10:04:02.337Z,1011.46
2018-04-22T10:05:02.257Z,1011.45
2018-04-22T10:06:02.183Z,1011.48
2018-04-22T10:07:02.098Z,1011.47
2018-04-22T10:08:02.010Z,1011.46
2018-04-22T10:09:01.934Z,1011.45
2018-04-22T10:10:01.854Z,1011.43
2018-04-22T10:11:01.777Z,1011.40
2018-04-22T10:12:01.697Z,1011.43
2018-04-22T10:13:01.618Z,1011.41
2018-04-22T10:14:01.540Z,1011.38
2018-04-22T10:15:01.462Z,1011.43
2018-04-22T10:16:01.384Z,1011.37
2018-04-22T10:17:01.306Z,1011.34
2018-04-22T10:18:01.229Z,1011.39
2018-04-22T10:19:01.149Z,1011.37
2018-04-22T10:20:01.072Z,1011.35
2018-04-22T10:21:00.992Z,1011.34
2018-04-22T10:22:00.913Z,1011.35
2018-04-22T10:23:00.837Z,1011.29
2018-04-22T10:24:00.761Z,1011.26
2018-04-22T10:25:00.679Z,1011.23
2018-04-22T10:26:00.602Z,1011.23
2018-04-22T10:27:00.522Z,1011.21
2018-04-22T10:28:00.444Z,1011.21
2018-04-22T10:29:00.366Z,1011.18
2018-04-22T10:30:00.307Z,1011.18
2018-04-22T10:31:00.221Z,1011.16
2018-04-22T10:32:00.143Z,1011.17
2018-04-22T10:33:00.065Z,1011.16
2018-04-22T10:33:59.986Z,1011.13
2018-04-22T10:34:59.908Z,1011.16
2018-04-22T10:35:59.843Z,1011.11
2018-04-22T10:36:59.765Z,1011.10
2018-04-22T10:37:59.689Z,1011.04
2018-04-22T10:38:59.607Z,1011.06
2018-04-22T10:39:59.536Z,1011.04
2018-04-22T10:40:59.462Z,1011.01
2018-04-22T10:41:59.439Z,1011.00
2018-04-22T10:42:59.306Z,1011.00
2018-04-22T10:43:59.228Z,1010.91
2018-04-22T10:44:59.163Z,1010.93
2018-04-22T10:45:59.090Z,1010.91
2018-04-22T10:46:59.011Z,1010.94
2018-04-22T10:47:58.927Z,1010.92
2018-04-22T10:48:58.850Z,1010.88
2018-04-22T10:49:58.771Z,1010.89
2018-04-22T10:50:58.708Z,1010.87
2018-04-22T10:51:58.631Z,1010.84
2018-04-22T10:52:58.567Z,1010.84
2018-04-22T10:53:58.469Z,1010.72
2018-04-22T10:54:58.391Z,1010.81
2018-04-22T10:55:58.313Z,1010.89
2018-04-22T10:56:58.235Z,1010.88
2018-04-22T10:57:58.208Z,1010.86
2018-04-22T10:58:58.077Z,1010.81
2018-04-22T10:59:57.988Z,1010.78
2018-04-22T11:00:57.909Z,1010.78
2018-04-22T11:01:57.837Z,1010.74
2018-04-22T11:02:57.752Z,1010.72
2018-04-22T11:03:57.674Z,1010.69
2018-04-22T11:04:57.596Z,1010.71
2018-04-22T11:05:57.518Z,1010.70
2018-04-22T11:06:57.427Z,1010.69
2018-04-22T11:07:57.354Z,1010.68
2018-04-22T11:08:57.269Z,1010.64
2018-04-22T11:09:57.191Z,1010.63
2018-04-22T11:10:57.114Z,1010.57
2018-04-22T11:11:57.023Z,1010.58
2018-04-22T11:12:56.949Z,1010.57
2018-04-22T11:13:56.866Z,1010.57
2018-04-22T11:14:56.775Z,1010.53
2018-04-22T11:15:56.696Z,1010.55
2018-04-22T11:16:56.619Z,1010.50
2018-04-22T11:17:56.529Z,1010.49
2018-04-22T11:18:56.449Z,1010.48
2018-04-22T11:19:56.359Z,1010.44
2018-04-22T11:20:56.293Z,1010.41
2018-04-22T11:21:56.201Z,1010.38
2018-04-22T11:22:56.111Z,1010.38
2018-04-22T11:23:56.033Z,1010.40
2018-04-22T11:24:55.942Z,1010.41
2018-04-22T11:25:55.863Z,1010.41
2018-04-22T11:26:55.773Z,1010.44
2018-04-22T11:27:55.683Z,1010.41
2018-04-22T11:28:55.607Z,1010.38
2018-04-22T11:29:55.513Z,1010.41
2018-04-22T11:30:55.435Z,1010.34
2018-04-22T11:31:55.343Z,1010.31
2018-04-22T11:32:55.273Z,1010.27
2018-04-22T11:33:55.177Z,1010.26
2018-04-22T11:34:55.083Z,1010.28
2018-04-22T11:35:55.005Z,1010.29
2018-04-22T11:36:54.917Z,1010.26
2018-04-22T11:37:54.824Z,1010.23
2018-04-22T11:38:54.748Z,1010.21
2018-04-22T11:39:54.655Z,1010.30
2018-04-22T11:40:54.815Z,1010.26
2018-04-22T11:41:54.485Z,1010.25
2018-04-22T11:42:54.420Z,1010.20
2018-04-22T11:43:54.303Z,1010.25
2018-04-22T11:44:54.226Z,1010.18
2018-04-22T11:45:54.135Z,1010.16
2018-04-22T11:46:54.043Z,1010.14
2018-04-22T11:47:53.954Z,1010.14
2018-04-22T11:48:53.876Z,1010.15
2018-04-22T11:49:53.786Z,1010.17
2018-04-22T11:50:53.694Z,1010.10
2018-04-22T11:51:53.604Z,1010.10
2018-04-22T11:52:53.523Z,1010.10
2018-04-22T11:53:53.434Z,1010.09
2018-04-22T11:54:53.346Z,1010.07
2018-04-22T11:55:53.252Z,1010.05
2018-04-22T11:56:53.174Z,1010.00
2018-04-22T11:57:53.083Z,1010.05
2018-04-22T11:58:52.996Z,1010.04
2018-04-22T11:59:52.949Z,1010.04
2018-04-22T12:00:52.811Z,1010.04
2018-04-22T12:01:52.733Z,1010.04
2018-04-22T12:02:52.640Z,1010.00
2018-04-22T12:03:52.551Z,1009.99
2018-04-22T12:04:52.459Z,1009.96